Terminal Aerodrome Forecast
Issued by NWS

Home | Current Version | Previous Version | Text Only | Print | Product List | Glossary On
Versions: 1 2 3 4 5 6 7 8 9 10 11 12 13 14 15 16
000
FTUS41 KBGM 051736
TAFITH
TAF
KITH 051736Z 0518/0618 34006KT P6SM SCT060 BKN250
     FM060400 VRB03KT P6SM -RA OVC080
     FM060800 VRB03KT P6SM OVC080
     FM061300 16005KT P6SM BKN120=

USA.gov is the U.S. government's official web portal to all federal, state and local government web resources and services.